sensor_id;sensor_type;location;lat;lon;timestamp;pressure;altitude;pressure_sealevel;temperature;humidity
12987;BME280;58897;51.960;5.582;2023-01-25T00:00:28;103526.91;;;1.02;100.00
12987;BME280;58897;51.960;5.582;2023-01-25T00:02:54;103515.69;;;0.91;100.00
12987;BME280;58897;51.960;5.582;2023-01-25T00:05:21;103520.84;;;0.97;100.00
12987;BME280;58897;51.960;5.582;2023-01-25T00:07:47;103517.34;;;0.95;100.00
12987;BME280;58897;51.960;5.582;2023-01-25T00:10:14;103515.41;;;1.01;100.00
12987;BME280;58897;51.960;5.582;2023-01-25T00:12:40;103511.13;;;0.96;100.00
12987;BME280;58897;51.960;5.582;2023-01-25T00:15:07;103512.06;;;0.93;100.00
12987;BME280;58897;51.960;5.582;2023-01-25T00:17:34;103508.91;;;0.78;100.00
12987;BME280;58897;51.960;5.582;2023-01-25T00:20:01;103503.75;;;0.70;100.00
12987;BME280;58897;51.960;5.582;2023-01-25T00:22:28;103507.88;;;0.83;100.00
12987;BME280;58897;51.960;5.582;2023-01-25T00:24:54;103502.50;;;0.85;100.00
12987;BME280;58897;51.960;5.582;2023-01-25T00:27:21;103493.50;;;0.90;100.00
12987;BME280;58897;51.960;5.582;2023-01-25T00:29:47;103498.91;;;0.87;100.00
12987;BME280;58897;51.960;5.582;2023-01-25T00:34:44;103503.13;;;0.96;100.00
12987;BME280;58897;51.960;5.582;2023-01-25T00:37:57;103497.31;;;0.79;100.00
12987;BME280;58897;51.960;5.582;2023-01-25T00:39:58;103491.16;;;0.78;100.00
12987;BME280;58897;51.960;5.582;2023-01-25T00:42:24;103491.16;;;0.77;100.00
12987;BME280;58897;51.960;5.582;2023-01-25T00:44:51;103491.28;;;0.72;100.00
12987;BME280;58897;51.960;5.582;2023-01-25T00:47:17;103485.28;;;0.64;100.00
12987;BME280;58897;51.960;5.582;2023-01-25T00:49:44;103485.91;;;0.75;100.00
12987;BME280;58897;51.960;5.582;2023-01-25T00:52:11;103481.97;;;0.53;100.00
12987;BME280;58897;51.960;5.582;2023-01-25T00:54:38;103481.34;;;0.42;100.00
12987;BME280;58897;51.960;5.582;2023-01-25T00:57:05;103486.91;;;0.70;100.00
12987;BME280;58897;51.960;5.582;2023-01-25T00:59:32;103483.81;;;0.88;100.00
12987;BME280;58897;51.960;5.582;2023-01-25T01:02:00;103479.81;;;0.70;100.00
12987;BME280;58897;51.960;5.582;2023-01-25T01:04:27;103473.97;;;0.54;100.00
12987;BME280;58897;51.960;5.582;2023-01-25T01:06:54;103476.38;;;0.65;100.00
12987;BME280;58897;51.960;5.582;2023-01-25T01:09:21;103475.50;;;0.65;100.00
12987;BME280;58897;51.960;5.582;2023-01-25T01:11:48;103467.53;;;0.63;100.00
12987;BME280;58897;51.960;5.582;2023-01-25T01:14:15;103474.56;;;0.66;100.00
12987;BME280;58897;51.960;5.582;2023-01-25T01:16:41;103477.03;;;0.75;100.00
12987;BME280;58897;51.960;5.582;2023-01-25T01:19:08;103475.19;;;0.40;100.00
12987;BME280;58897;51.960;5.582;2023-01-25T01:21:35;103470.97;;;0.68;100.00
12987;BME280;58897;51.960;5.582;2023-01-25T01:24:01;103479.38;;;0.50;100.00
12987;BME280;58897;51.960;5.582;2023-01-25T01:26:28;103479.25;;;0.56;100.00
12987;BME280;58897;51.960;5.582;2023-01-25T01:28:54;103482.28;;;0.41;100.00
12987;BME280;58897;51.960;5.582;2023-01-25T01:31:22;103479.25;;;0.18;100.00
12987;BME280;58897;51.960;5.582;2023-01-25T01:33:54;103476.91;;;0.42;100.00
12987;BME280;58897;51.960;5.582;2023-01-25T01:36:24;103483.09;;;0.43;100.00
12987;BME280;58897;51.960;5.582;2023-01-25T01:38:51;103481.97;;;0.54;100.00
12987;BME280;58897;51.960;5.582;2023-01-25T01:41:18;103477.59;;;0.50;100.00
12987;BME280;58897;51.960;5.582;2023-01-25T01:43:45;103478.13;;;0.66;100.00
12987;BME280;58897;51.960;5.582;2023-01-25T01:46:35;103481.97;;;0.53;100.00
12987;BME280;58897;51.960;5.582;2023-01-25T01:49:05;103477.22;;;0.67;100.00
12987;BME280;58897;51.960;5.582;2023-01-25T01:51:49;103478.31;;;0.20;100.00
12987;BME280;58897;51.960;5.582;2023-01-25T01:56:51;103464.84;;;0.26;100.00
12987;BME280;58897;51.960;5.582;2023-01-25T01:59:23;103464.72;;;0.34;100.00
12987;BME280;58897;51.960;5.582;2023-01-25T02:01:52;103457.13;;;0.54;100.00
12987;BME280;58897;51.960;5.582;2023-01-25T02:04:20;103458.09;;;0.51;100.00
12987;BME280;58897;51.960;5.582;2023-01-25T02:06:59;103456.81;;;0.29;100.00
12987;BME280;58897;51.960;5.582;2023-01-25T02:09:28;103460.13;;;0.40;100.00
12987;BME280;58897;51.960;5.582;2023-01-25T02:11:57;103456.56;;;0.40;100.00
12987;BME280;58897;51.960;5.582;2023-01-25T02:14:26;103455.38;;;0.53;100.00
12987;BME280;58897;51.960;5.582;2023-01-25T02:16:54;103454.78;;;0.40;100.00
12987;BME280;58897;51.960;5.582;2023-01-25T02:19:40;103450.34;;;0.41;100.00
12987;BME280;58897;51.960;5.582;2023-01-25T02:22:12;103455.44;;;0.51;100.00
12987;BME280;58897;51.960;5.582;2023-01-25T02:24:46;103450.88;;;0.55;100.00
12987;BME280;58897;51.960;5.582;2023-01-25T02:27:15;103445.50;;;0.58;100.00
12987;BME280;58897;51.960;5.582;2023-01-25T02:29:42;103443.50;;;0.68;100.00
12987;BME280;58897;51.960;5.582;2023-01-25T02:32:09;103437.72;;;0.50;100.00
12987;BME280;58897;51.960;5.582;2023-01-25T02:34:35;103442.75;;;0.63;100.00
12987;BME280;58897;51.960;5.582;2023-01-25T02:37:02;103442.84;;;0.58;100.00
12987;BME280;58897;51.960;5.582;2023-01-25T02:39:28;103444.97;;;0.44;100.00
12987;BME280;58897;51.960;5.582;2023-01-25T02:41:55;103435.69;;;0.61;100.00
12987;BME280;58897;51.960;5.582;2023-01-25T02:44:30;103439.03;;;0.68;100.00
12987;BME280;58897;51.960;5.582;2023-01-25T02:46:59;103446.25;;;0.65;100.00
12987;BME280;58897;51.960;5.582;2023-01-25T02:49:26;103432.06;;;0.64;100.00
12987;BME280;58897;51.960;5.582;2023-01-25T02:51:54;103437.06;;;0.39;100.00
12987;BME280;58897;51.960;5.582;2023-01-25T02:54:24;103438.53;;;0.54;100.00
12987;BME280;58897;51.960;5.582;2023-01-25T02:56:52;103438.25;;;0.65;100.00
12987;BME280;58897;51.960;5.582;2023-01-25T02:59:18;103434.91;;;0.56;100.00
12987;BME280;58897;51.960;5.582;2023-01-25T03:01:45;103435.84;;;0.17;100.00
12987;BME280;58897;51.960;5.582;2023-01-25T03:04:12;103430.53;;;0.17;100.00
12987;BME280;58897;51.960;5.582;2023-01-25T03:06:39;103437.88;;;0.43;100.00
12987;BME280;58897;51.960;5.582;2023-01-25T03:09:07;103432.00;;;0.30;100.00
12987;BME280;58897;51.960;5.582;2023-01-25T03:11:35;103433.22;;;0.52;100.00
12987;BME280;58897;51.960;5.582;2023-01-25T03:14:01;103430.56;;;0.52;100.00
12987;BME280;58897;51.960;5.582;2023-01-25T03:16:30;103414.44;;;0.22;100.00
12987;BME280;58897;51.960;5.582;2023-01-25T03:18:56;103406.13;;;0.37;100.00
12987;BME280;58897;51.960;5.582;2023-01-25T03:21:23;103410.28;;;0.48;100.00
12987;BME280;58897;51.960;5.582;2023-01-25T03:23:58;103409.25;;;0.54;100.00
12987;BME280;58897;51.960;5.582;2023-01-25T03:26:26;103406.03;;;0.40;100.00
12987;BME280;58897;51.960;5.582;2023-01-25T03:28:53;103397.88;;;0.49;100.00
12987;BME280;58897;51.960;5.582;2023-01-25T03:31:19;103392.44;;;0.53;100.00
12987;BME280;58897;51.960;5.582;2023-01-25T03:33:46;103383.63;;;0.50;100.00
12987;BME280;58897;51.960;5.582;2023-01-25T03:36:12;103390.56;;;0.57;100.00
12987;BME280;58897;51.960;5.582;2023-01-25T03:38:39;103391.03;;;0.39;100.00
12987;BME280;58897;51.960;5.582;2023-01-25T03:41:05;103396.44;;;0.34;100.00
12987;BME280;58897;51.960;5.582;2023-01-25T03:43:33;103398.00;;;0.43;100.00
12987;BME280;58897;51.960;5.582;2023-01-25T03:46:00;103393.38;;;0.51;100.00
12987;BME280;58897;51.960;5.582;2023-01-25T03:48:28;103380.97;;;0.51;100.00
12987;BME280;58897;51.960;5.582;2023-01-25T03:50:57;103380.97;;;0.50;100.00
12987;BME280;58897;51.960;5.582;2023-01-25T03:53:26;103369.31;;;0.55;100.00
12987;BME280;58897;51.960;5.582;2023-01-25T03:58:28;103377.16;;;0.25;100.00
12987;BME280;58897;51.960;5.582;2023-01-25T04:00:57;103382.72;;;0.16;100.00
12987;BME280;58897;51.960;5.582;2023-01-25T04:03:24;103372.59;;;0.31;100.00
12987;BME280;58897;51.960;5.582;2023-01-25T04:05:51;103380.72;;;0.25;100.00
12987;BME280;58897;51.960;5.582;2023-01-25T04:08:17;103376.16;;;0.30;100.00
12987;BME280;58897;51.960;5.582;2023-01-25T04:10:49;103371.22;;;0.14;100.00
12987;BME280;58897;51.960;5.582;2023-01-25T04:13:18;103378.00;;;0.27;100.00
12987;BME280;58897;51.960;5.582;2023-01-25T04:15:44;103368.28;;;0.26;100.00
12987;BME280;58897;51.960;5.582;2023-01-25T04:18:11;103368.13;;;0.32;100.00
12987;BME280;58897;51.960;5.582;2023-01-25T04:20:37;103368.94;;;0.35;100.00
12987;BME280;58897;51.960;5.582;2023-01-25T04:23:06;103356.41;;;0.40;100.00
12987;BME280;58897;51.960;5.582;2023-01-25T04:25:32;103361.72;;;0.40;100.00
12987;BME280;58897;51.960;5.582;2023-01-25T04:27:59;103351.91;;;0.44;100.00
12987;BME280;58897;51.960;5.582;2023-01-25T04:30:25;103357.13;;;0.47;100.00
12987;BME280;58897;51.960;5.582;2023-01-25T04:32:52;103354.47;;;0.47;100.00
12987;BME280;58897;51.960;5.582;2023-01-25T04:35:19;103356.22;;;0.48;100.00
12987;BME280;58897;51.960;5.582;2023-01-25T04:37:53;103352.59;;;0.50;100.00
12987;BME280;58897;51.960;5.582;2023-01-25T04:40:20;103348.75;;;0.27;100.00
12987;BME280;58897;51.960;5.582;2023-01-25T04:42:47;103345.84;;;0.37;100.00
12987;BME280;58897;51.960;5.582;2023-01-25T04:45:13;103344.13;;;0.35;100.00
12987;BME280;58897;51.960;5.582;2023-01-25T04:47:40;103346.59;;;0.42;100.00
12987;BME280;58897;51.960;5.582;2023-01-25T04:50:06;103345.06;;;0.32;100.00
12987;BME280;58897;51.960;5.582;2023-01-25T04:52:33;103330.06;;;0.30;100.00
12987;BME280;58897;51.960;5.582;2023-01-25T04:55:00;103333.41;;;0.38;100.00
12987;BME280;58897;51.960;5.582;2023-01-25T04:57:26;103330.13;;;0.28;100.00
12987;BME280;58897;51.960;5.582;2023-01-25T04:59:52;103336.97;;;0.38;100.00
12987;BME280;58897;51.960;5.582;2023-01-25T05:02:19;103335.28;;;0.34;100.00
12987;BME280;58897;51.960;5.582;2023-01-25T05:04:45;103332.59;;;0.36;100.00
12987;BME280;58897;51.960;5.582;2023-01-25T05:07:12;103330.81;;;0.36;100.00
12987;BME280;58897;51.960;5.582;2023-01-25T05:09:38;103326.50;;;0.31;100.00
12987;BME280;58897;51.960;5.582;2023-01-25T05:12:05;103325.66;;;0.29;100.00
12987;BME280;58897;51.960;5.582;2023-01-25T05:14:37;103332.88;;;0.24;100.00
12987;BME280;58897;51.960;5.582;2023-01-25T05:17:05;103339.63;;;0.02;100.00
12987;BME280;58897;51.960;5.582;2023-01-25T05:19:32;103331.06;;;0.26;100.00
12987;BME280;58897;51.960;5.582;2023-01-25T05:22:00;103336.59;;;0.18;100.00
12987;BME280;58897;51.960;5.582;2023-01-25T05:24:30;103327.03;;;0.08;100.00
12987;BME280;58897;51.960;5.582;2023-01-25T05:26:57;103325.94;;;-0.19;100.00
12987;BME280;58897;51.960;5.582;2023-01-25T05:29:27;103317.47;;;0.01;100.00
12987;BME280;58897;51.960;5.582;2023-01-25T05:31:54;103317.47;;;0.03;100.00
12987;BME280;58897;51.960;5.582;2023-01-25T05:34:21;103319.31;;;-0.03;100.00
12987;BME280;58897;51.960;5.582;2023-01-25T05:36:47;103325.28;;;0.09;100.00
12987;BME280;58897;51.960;5.582;2023-01-25T05:39:14;103318.81;;;0.20;100.00
12987;BME280;58897;51.960;5.582;2023-01-25T05:41:40;103317.47;;;0.01;100.00
12987;BME280;58897;51.960;5.582;2023-01-25T05:44:08;103308.56;;;0.04;100.00
12987;BME280;58897;51.960;5.582;2023-01-25T05:46:35;103318.84;;;-0.20;100.00
12987;BME280;58897;51.960;5.582;2023-01-25T05:49:01;103314.84;;;-0.37;100.00
12987;BME280;58897;51.960;5.582;2023-01-25T05:51:28;103322.41;;;-0.19;100.00
12987;BME280;58897;51.960;5.582;2023-01-25T05:53:55;103327.78;;;-0.22;100.00
12987;BME280;58897;51.960;5.582;2023-01-25T05:56:22;103324.09;;;-0.17;100.00
12987;BME280;58897;51.960;5.582;2023-01-25T05:58:56;103327.13;;;-0.33;100.00
12987;BME280;58897;51.960;5.582;2023-01-25T06:01:24;103323.03;;;-0.10;100.00
12987;BME280;58897;51.960;5.582;2023-01-25T06:03:51;103328.13;;;0.01;100.00
12987;BME280;58897;51.960;5.582;2023-01-25T06:06:18;103334.78;;;-0.20;100.00
12987;BME280;58897;51.960;5.582;2023-01-25T06:08:45;103326.22;;;-0.32;100.00
12987;BME280;58897;51.960;5.582;2023-01-25T06:11:19;103331.41;;;-0.26;100.00
12987;BME280;58897;51.960;5.582;2023-01-25T06:13:46;103329.34;;;-0.14;100.00
12987;BME280;58897;51.960;5.582;2023-01-25T06:16:14;103329.19;;;-0.08;100.00
12987;BME280;58897;51.960;5.582;2023-01-25T06:18:41;103329.19;;;-0.06;100.00
12987;BME280;58897;51.960;5.582;2023-01-25T06:21:07;103339.81;;;-0.08;100.00
12987;BME280;58897;51.960;5.582;2023-01-25T06:23:34;103344.88;;;0.05;100.00
12987;BME280;58897;51.960;5.582;2023-01-25T06:26:04;103347.53;;;0.05;100.00
12987;BME280;58897;51.960;5.582;2023-01-25T06:28:32;103336.13;;;-0.01;100.00
12987;BME280;58897;51.960;5.582;2023-01-25T06:31:06;103341.28;;;0.07;100.00
12987;BME280;58897;51.960;5.582;2023-01-25T06:33:34;103336.59;;;0.17;100.00
12987;BME280;58897;51.960;5.582;2023-01-25T06:36:06;103338.56;;;0.09;100.00
12987;BME280;58897;51.960;5.582;2023-01-25T06:38:33;103332.63;;;-0.03;100.00
12987;BME280;58897;51.960;5.582;2023-01-25T06:41:01;103322.69;;;0.06;100.00
12987;BME280;58897;51.960;5.582;2023-01-25T06:43:29;103327.16;;;0.05;100.00
12987;BME280;58897;51.960;5.582;2023-01-25T06:46:04;103328.03;;;0.04;100.00
12987;BME280;58897;51.960;5.582;2023-01-25T06:48:31;103335.84;;;0.12;100.00
12987;BME280;58897;51.960;5.582;2023-01-25T06:51:00;103318.13;;;0.11;100.00
12987;BME280;58897;51.960;5.582;2023-01-25T06:53:30;103331.34;;;0.14;100.00
12987;BME280;58897;51.960;5.582;2023-01-25T06:56:02;103325.09;;;0.16;100.00
12987;BME280;58897;51.960;5.582;2023-01-25T06:58:29;103322.72;;;0.04;100.00
12987;BME280;58897;51.960;5.582;2023-01-25T07:01:02;103318.44;;;-0.02;100.00
12987;BME280;58897;51.960;5.582;2023-01-25T07:03:29;103323.97;;;-0.11;100.00
12987;BME280;58897;51.960;5.582;2023-01-25T07:06:01;103327.03;;;0.10;100.00
12987;BME280;58897;51.960;5.582;2023-01-25T07:08:28;103323.53;;;0.08;100.00
12987;BME280;58897;51.960;5.582;2023-01-25T07:10:57;103317.34;;;0.07;100.00
12987;BME280;58897;51.960;5.582;2023-01-25T07:13:24;103315.22;;;0.21;100.00
12987;BME280;58897;51.960;5.582;2023-01-25T07:15:58;103318.81;;;0.19;100.00
12987;BME280;58897;51.960;5.582;2023-01-25T07:18:26;103314.25;;;0.25;100.00
12987;BME280;58897;51.960;5.582;2023-01-25T07:20:53;103307.25;;;0.21;100.00
12987;BME280;58897;51.960;5.582;2023-01-25T07:23:19;103305.50;;;0.20;100.00
12987;BME280;58897;51.960;5.582;2023-01-25T07:25:47;103295.72;;;0.22;100.00
12987;BME280;58897;51.960;5.582;2023-01-25T07:28:15;103296.72;;;0.18;100.00
12987;BME280;58897;51.960;5.582;2023-01-25T07:30:42;103292.34;;;0.14;100.00
12987;BME280;58897;51.960;5.582;2023-01-25T07:33:09;103296.34;;;-0.04;100.00
12987;BME280;58897;51.960;5.582;2023-01-25T07:35:36;103296.78;;;-0.23;100.00
12987;BME280;58897;51.960;5.582;2023-01-25T07:38:03;103293.44;;;0.07;100.00
12987;BME280;58897;51.960;5.582;2023-01-25T07:40:30;103295.09;;;0.11;100.00
12987;BME280;58897;51.960;5.582;2023-01-25T07:42:56;103300.53;;;0.07;100.00
12987;BME280;58897;51.960;5.582;2023-01-25T07:45:24;103311.53;;;-0.09;100.00
12987;BME280;58897;51.960;5.582;2023-01-25T07:47:57;103299.81;;;0.00;100.00
12987;BME280;58897;51.960;5.582;2023-01-25T07:50:25;103301.41;;;0.06;100.00
12987;BME280;58897;51.960;5.582;2023-01-25T07:52:53;103294.41;;;0.03;100.00
12987;BME280;58897;51.960;5.582;2023-01-25T07:55:20;103296.97;;;0.06;100.00
12987;BME280;58897;51.960;5.582;2023-01-25T07:57:47;103294.19;;;0.12;100.00
12987;BME280;58897;51.960;5.582;2023-01-25T08:00:14;103292.22;;;0.20;100.00
12987;BME280;58897;51.960;5.582;2023-01-25T08:02:40;103283.50;;;0.15;100.00
12987;BME280;58897;51.960;5.582;2023-01-25T08:05:07;103291.41;;;0.17;100.00
12987;BME280;58897;51.960;5.582;2023-01-25T08:07:34;103286.09;;;0.17;100.00
12987;BME280;58897;51.960;5.582;2023-01-25T08:10:01;103289.50;;;0.22;100.00
12987;BME280;58897;51.960;5.582;2023-01-25T08:12:27;103281.66;;;0.17;100.00
12987;BME280;58897;51.960;5.582;2023-01-25T08:14:54;103277.22;;;0.18;100.00
12987;BME280;58897;51.960;5.582;2023-01-25T08:17:20;103272.66;;;0.23;100.00
12987;BME280;58897;51.960;5.582;2023-01-25T08:19:47;103274.94;;;0.03;100.00
12987;BME280;58897;51.960;5.582;2023-01-25T08:22:13;103273.22;;;0.00;100.00
12987;BME280;58897;51.960;5.582;2023-01-25T08:24:40;103269.19;;;-0.16;100.00
12987;BME280;58897;51.960;5.582;2023-01-25T08:27:06;103280.66;;;-0.14;100.00
12987;BME280;58897;51.960;5.582;2023-01-25T08:29:33;103269.78;;;-0.05;100.00
12987;BME280;58897;51.960;5.582;2023-01-25T08:31:59;103271.78;;;-0.13;100.00
12987;BME280;58897;51.960;5.582;2023-01-25T08:34:30;103272.31;;;0.01;100.00
12987;BME280;58897;51.960;5.582;2023-01-25T08:36:57;103274.00;;;0.73;100.00
12987;BME280;58897;51.960;5.582;2023-01-25T08:39:24;103269.81;;;0.29;100.00
12987;BME280;58897;51.960;5.582;2023-01-25T08:41:51;103273.91;;;0.08;100.00
12987;BME280;58897;51.960;5.582;2023-01-25T08:44:17;103267.00;;;0.01;100.00
12987;BME280;58897;51.960;5.582;2023-01-25T08:46:49;103269.44;;;0.10;100.00
12987;BME280;58897;51.960;5.582;2023-01-25T08:49:15;103261.28;;;0.16;100.00
12987;BME280;58897;51.960;5.582;2023-01-25T08:51:42;103262.28;;;0.12;100.00
12987;BME280;58897;51.960;5.582;2023-01-25T08:54:11;103261.41;;;0.12;100.00
12987;BME280;58897;51.960;5.582;2023-01-25T08:56:39;103262.03;;;0.23;100.00
12987;BME280;58897;51.960;5.582;2023-01-25T08:59:06;103254.75;;;0.29;100.00
12987;BME280;58897;51.960;5.582;2023-01-25T09:01:35;103254.47;;;0.40;100.00
12987;BME280;58897;51.960;5.582;2023-01-25T09:04:01;103244.91;;;0.33;100.00
12987;BME280;58897;51.960;5.582;2023-01-25T09:06:28;103250.50;;;0.22;100.00
12987;BME280;58897;51.960;5.582;2023-01-25T09:08:54;103249.44;;;0.29;100.00
12987;BME280;58897;51.960;5.582;2023-01-25T09:11:21;103243.34;;;0.26;100.00
12987;BME280;58897;51.960;5.582;2023-01-25T09:13:48;103256.97;;;0.12;100.00
12987;BME280;58897;51.960;5.582;2023-01-25T09:16:21;103247.78;;;0.25;100.00
12987;BME280;58897;51.960;5.582;2023-01-25T09:18:56;103241.84;;;0.14;100.00
12987;BME280;58897;51.960;5.582;2023-01-25T09:21:23;103236.19;;;-0.06;100.00
12987;BME280;58897;51.960;5.582;2023-01-25T09:23:51;103236.81;;;0.04;100.00
12987;BME280;58897;51.960;5.582;2023-01-25T09:26:38;103244.78;;;0.04;100.00
12987;BME280;58897;51.960;5.582;2023-01-25T09:29:05;103238.84;;;-0.06;100.00
12987;BME280;58897;51.960;5.582;2023-01-25T09:31:33;103233.84;;;-0.20;100.00
12987;BME280;58897;51.960;5.582;2023-01-25T09:34:00;103230.09;;;-0.11;100.00
12987;BME280;58897;51.960;5.582;2023-01-25T09:36:27;103234.41;;;-0.06;100.00
12987;BME280;58897;51.960;5.582;2023-01-25T09:38:54;103234.59;;;-0.13;100.00
12987;BME280;58897;51.960;5.582;2023-01-25T09:44:18;103234.91;;;0.09;100.00
12987;BME280;58897;51.960;5.582;2023-01-25T09:46:52;103238.97;;;0.23;100.00
12987;BME280;58897;51.960;5.582;2023-01-25T09:55:14;103231.97;;;0.19;100.00
12987;BME280;58897;51.960;5.582;2023-01-25T09:57:44;103226.38;;;0.31;100.00
12987;BME280;58897;51.960;5.582;2023-01-25T10:00:21;103216.97;;;0.17;100.00
12987;BME280;58897;51.960;5.582;2023-01-25T10:05:21;103218.25;;;0.36;100.00
12987;BME280;58897;51.960;5.582;2023-01-25T10:10:29;103219.16;;;0.35;100.00
12987;BME280;58897;51.960;5.582;2023-01-25T10:12:57;103211.91;;;0.41;100.00
12987;BME280;58897;51.960;5.582;2023-01-25T10:15:28;103213.09;;;0.30;100.00
12987;BME280;58897;51.960;5.582;2023-01-25T10:18:08;103216.84;;;0.21;100.00
12987;BME280;58897;51.960;5.582;2023-01-25T10:20:48;103207.84;;;-0.07;100.00
12987;BME280;58897;51.960;5.582;2023-01-25T10:23:30;103201.41;;;0.35;100.00
12987;BME280;58897;51.960;5.582;2023-01-25T10:26:15;103207.09;;;0.22;100.00
12987;BME280;58897;51.960;5.582;2023-01-25T10:31:45;103191.91;;;0.27;100.00
12987;BME280;58897;51.960;5.582;2023-01-25T10:34:19;103196.03;;;-0.31;100.00
12987;BME280;58897;51.960;5.582;2023-01-25T10:36:50;103182.66;;;-0.26;100.00
12987;BME280;58897;51.960;5.582;2023-01-25T10:39:18;103183.72;;;0.00;100.00
12987;BME280;58897;51.960;5.582;2023-01-25T10:44:15;103178.22;;;0.08;100.00
12987;BME280;58897;51.960;5.582;2023-01-25T10:49:39;103158.16;;;-0.04;100.00
12987;BME280;58897;51.960;5.582;2023-01-25T10:52:17;103149.72;;;-0.21;100.00
12987;BME280;58897;51.960;5.582;2023-01-25T10:54:45;103138.84;;;-0.10;100.00
12987;BME280;58897;51.960;5.582;2023-01-25T10:57:20;103134.88;;;-0.28;100.00
12987;BME280;58897;51.960;5.582;2023-01-25T10:59:50;103143.72;;;-0.27;100.00
12987;BME280;58897;51.960;5.582;2023-01-25T11:02:37;103143.78;;;-0.30;100.00
12987;BME280;58897;51.960;5.582;2023-01-25T11:05:27;103140.56;;;-0.43;100.00
12987;BME280;58897;51.960;5.582;2023-01-25T11:07:55;103134.75;;;-0.23;100.00
12987;BME280;58897;51.960;5.582;2023-01-25T11:18:58;103101.63;;;-0.10;100.00
12987;BME280;58897;51.960;5.582;2023-01-25T11:21:32;103092.63;;;-0.37;100.00
12987;BME280;58897;51.960;5.582;2023-01-25T11:26:38;103091.16;;;-0.15;100.00
12987;BME280;58897;51.960;5.582;2023-01-25T11:29:15;103079.03;;;0.08;100.00
12987;BME280;58897;51.960;5.582;2023-01-25T11:31:53;103073.25;;;-0.08;100.00
12987;BME280;58897;51.960;5.582;2023-01-25T11:34:24;103066.59;;;0.08;100.00
12987;BME280;58897;51.960;5.582;2023-01-25T11:39:56;103059.25;;;-0.15;100.00
12987;BME280;58897;51.960;5.582;2023-01-25T11:42:40;103047.75;;;-0.15;100.00
12987;BME280;58897;51.960;5.582;2023-01-25T11:51:03;103033.75;;;0.11;100.00
12987;BME280;58897;51.960;5.582;2023-01-25T11:53:45;103019.63;;;0.09;100.00
12987;BME280;58897;51.960;5.582;2023-01-25T12:04:45;102991.78;;;0.22;100.00
12987;BME280;58897;51.960;5.582;2023-01-25T12:10:19;102976.31;;;0.34;100.00
12987;BME280;58897;51.960;5.582;2023-01-25T12:15:51;102969.75;;;-0.13;100.00
12987;BME280;58897;51.960;5.582;2023-01-25T12:21:16;102959.38;;;0.09;100.00
12987;BME280;58897;51.960;5.582;2023-01-25T12:24:10;102951.16;;;0.18;100.00
12987;BME280;58897;51.960;5.582;2023-01-25T12:29:35;102934.19;;;0.22;100.00
12987;BME280;58897;51.960;5.582;2023-01-25T12:32:19;102925.53;;;0.16;100.00
12987;BME280;58897;51.960;5.582;2023-01-25T12:35:01;102925.09;;;0.29;100.00
12987;BME280;58897;51.960;5.582;2023-01-25T12:37:35;102925.00;;;0.03;100.00
12987;BME280;58897;51.960;5.582;2023-01-25T12:40:11;102916.47;;;-0.37;100.00
12987;BME280;58897;51.960;5.582;2023-01-25T12:42:54;102924.16;;;-0.28;100.00
12987;BME280;58897;51.960;5.582;2023-01-25T12:45:24;102904.50;;;-0.21;100.00
12987;BME280;58897;51.960;5.582;2023-01-25T12:47:57;102911.41;;;0.14;100.00
12987;BME280;58897;51.960;5.582;2023-01-25T12:50:40;102900.84;;;0.11;100.00
12987;BME280;58897;51.960;5.582;2023-01-25T12:53:30;102895.94;;;-0.02;100.00
12987;BME280;58897;51.960;5.582;2023-01-25T12:55:59;102894.94;;;0.03;100.00
12987;BME280;58897;51.960;5.582;2023-01-25T13:01:22;102879.19;;;-0.05;100.00
12987;BME280;58897;51.960;5.582;2023-01-25T13:06:25;102874.97;;;-0.41;100.00
12987;BME280;58897;51.960;5.582;2023-01-25T13:11:44;102874.66;;;-0.31;100.00
12987;BME280;58897;51.960;5.582;2023-01-25T13:16:51;102857.41;;;-0.16;100.00
12987;BME280;58897;51.960;5.582;2023-01-25T13:22:01;102842.84;;;-0.32;100.00
12987;BME280;58897;51.960;5.582;2023-01-25T13:31:58;102829.16;;;0.09;100.00
12987;BME280;58897;51.960;5.582;2023-01-25T13:37:02;102837.22;;;0.06;100.00
12987;BME280;58897;51.960;5.582;2023-01-25T13:39:42;102832.34;;;-0.08;100.00
12987;BME280;58897;51.960;5.582;2023-01-25T13:44:41;102836.25;;;-0.19;100.00
12987;BME280;58897;51.960;5.582;2023-01-25T13:47:14;102834.31;;;0.14;100.00
12987;BME280;58897;51.960;5.582;2023-01-25T13:49:47;102834.28;;;0.15;100.00
12987;BME280;58897;51.960;5.582;2023-01-25T13:52:17;102826.03;;;-0.04;100.00
12987;BME280;58897;51.960;5.582;2023-01-25T13:54:46;102830.94;;;0.09;100.00
12987;BME280;58897;51.960;5.582;2023-01-25T13:57:17;102836.41;;;0.04;100.00
12987;BME280;58897;51.960;5.582;2023-01-25T13:59:44;102818.06;;;-0.04;100.00
12987;BME280;58897;51.960;5.582;2023-01-25T14:02:19;102820.00;;;-0.10;100.00
12987;BME280;58897;51.960;5.582;2023-01-25T14:04:49;102815.19;;;-0.25;100.00
12987;BME280;58897;51.960;5.582;2023-01-25T14:07:19;102810.34;;;-0.13;100.00
12987;BME280;58897;51.960;5.582;2023-01-25T14:09:47;102810.59;;;-0.20;100.00
12987;BME280;58897;51.960;5.582;2023-01-25T14:12:42;102818.78;;;0.02;100.00
12987;BME280;58897;51.960;5.582;2023-01-25T14:15:35;102812.97;;;-0.11;100.00
12987;BME280;58897;51.960;5.582;2023-01-25T14:18:16;102812.38;;;-0.21;100.00
12987;BME280;58897;51.960;5.582;2023-01-25T14:20:46;102811.84;;;-0.61;100.00
12987;BME280;58897;51.960;5.582;2023-01-25T14:23:20;102804.63;;;-0.27;100.00
12987;BME280;58897;51.960;5.582;2023-01-25T14:25:47;102793.03;;;-0.24;100.00
12987;BME280;58897;51.960;5.582;2023-01-25T14:28:14;102789.97;;;-0.12;100.00
12987;BME280;58897;51.960;5.582;2023-01-25T14:30:41;102797.16;;;-0.16;100.00
12987;BME280;58897;51.960;5.582;2023-01-25T14:33:28;102794.31;;;-0.37;100.00
12987;BME280;58897;51.960;5.582;2023-01-25T14:36:13;102784.44;;;-0.32;100.00